Time,TemperatureF,DewpointF,PressureIn,WindDirection,WindDirectionDegrees,WindSpeedMPH,WindSpeedGustMPH,Humidity,HourlyPrecipIn,Conditions,Clouds,dailyrainin,SolarRadiationWatts/m^2,SoftwareType,DateUTC
2013-11-09 00:01:00,32.7,29.0,30.21,ESE,112,1.4,1.4,86,0.00,CLR,,0.00,0.0,WeatherDisplay:10.37,2013-11-09 05:01:00,
2013-11-09 00:06:00,32.5,28.8,30.21,ENE,68,3.5,3.5,86,0.00,CLR,,0.00,0.0,WeatherDisplay:10.37,2013-11-09 05:06:00,
2013-11-09 00:11:00,32.2,28.5,30.21,ENE,68,2.6,2.6,86,0.00,CLR,,0.00,0.0,WeatherDisplay:10.37,2013-11-09 05:11:00,
2013-11-09 00:16:00,32.0,28.3,30.21,ENE,68,2.4,2.4,86,0.00,CLR,,0.00,0.0,WeatherDisplay:10.37,2013-11-09 05:16:00,
2013-11-09 00:21:00,31.8,28.1,30.21,ENE,68,2.3,2.3,86,0.00,CLR,,0.00,0.0,WeatherDisplay:10.37,2013-11-09 05:21:00,
2013-11-09 00:26:00,31.8,27.8,30.21,ENE,68,2.3,2.3,85,0.00,CLR,,0.00,0.0,WeatherDisplay:10.37,2013-11-09 05:26:00,
2013-11-09 00:32:00,31.8,28.1,30.21,ESE,112,0.0,0.0,86,0.00,CLR,,0.00,0.0,WeatherDisplay:10.37,2013-11-09 05:32:00,
2013-11-09 00:37:00,31.8,28.1,30.21,ESE,112,1.4,1.4,86,0.00,CLR,,0.00,0.0,WeatherDisplay:10.37,2013-11-09 05:37:00,
2013-11-09 00:42:00,32.0,28.3,30.21,ESE,112,0.0,0.0,86,0.00,CLR,,0.00,0.0,WeatherDisplay:10.37,2013-11-09 05:42:00,
2013-11-09 00:47:00,32.0,28.3,30.21,SE,135,2.3,2.3,86,0.00,CLR,,0.00,0.0,WeatherDisplay:10.37,2013-11-09 05:47:00,
2013-11-09 00:52:00,32.5,29.1,30.21,ESE,112,3.8,3.8,87,0.00,CLR,,0.00,0.0,WeatherDisplay:10.37,2013-11-09 05:52:00,
2013-11-09 00:57:00,33.1,29.3,30.21,ESE,112,2.4,2.6,86,0.00,CLR,,0.00,0.0,WeatherDisplay:10.37,2013-11-09 05:57:00,
2013-11-09 01:02:00,33.6,29.6,30.21,SE,135,3.5,3.5,85,0.00,CLR,,0.00,0.0,WeatherDisplay:10.37,2013-11-09 06:02:00,
2013-11-09 01:07:00,33.8,29.5,30.21,SE,135,3.8,3.8,84,0.00,CLR,,0.00,0.0,WeatherDisplay:10.37,2013-11-09 06:07:00,
2013-11-09 01:12:00,34.5,28.7,30.21,ESE,112,4.6,4.6,79,0.00,CLR,,0.00,0.0,WeatherDisplay:10.37,2013-11-09 06:12:00,
2013-11-09 01:17:00,35.1,28.6,30.21,SSE,158,3.5,3.5,77,0.00,CLR,,0.00,0.0,WeatherDisplay:10.37,2013-11-09 06:17:00,
2013-11-09 01:22:00,35.2,28.4,30.21,East,90,4.0,4.0,76,0.00,CLR,,0.00,0.0,WeatherDisplay:10.37,2013-11-09 06:22:00,
2013-11-09 01:27:00,35.4,28.3,30.21,SSE,158,2.3,2.3,75,0.00,CLR,,0.00,0.0,WeatherDisplay:10.37,2013-11-09 06:27:00,
2013-11-09 01:32:00,35.4,28.0,30.21,ESE,112,3.5,3.5,74,0.00,CLR,,0.00,0.0,WeatherDisplay:10.37,2013-11-09 06:32:00,
2013-11-09 01:37:00,35.6,28.1,30.21,SE,135,2.3,2.3,74,0.00,CLR,,0.00,0.0,WeatherDisplay:10.37,2013-11-09 06:37:00,
2013-11-09 01:42:00,35.6,28.1,30.21,SE,135,2.3,2.4,74,0.00,CLR,,0.00,0.0,WeatherDisplay:10.37,2013-11-09 06:42:00,
2013-11-09 01:47:00,35.8,28.0,30.21,SSE,158,2.6,2.6,73,0.00,CLR,,0.00,0.0,WeatherDisplay:10.37,2013-11-09 06:47:00,
2013-11-09 01:52:00,35.8,28.0,30.21,SSE,158,2.4,2.4,73,0.00,CLR,,0.00,0.0,WeatherDisplay:10.37,2013-11-09 06:52:00,
2013-11-09 01:57:00,35.8,28.0,30.21,SSE,158,3.5,3.5,73,0.00,CLR,,0.00,0.0,WeatherDisplay:10.37,2013-11-09 06:57:00,
2013-11-09 02:02:00,36.1,28.3,30.21,SSE,158,2.4,2.4,73,0.00,CLR,,0.00,0.0,WeatherDisplay:10.37,2013-11-09 07:02:00,
2013-11-09 02:07:00,36.3,28.2,30.21,SSE,158,2.9,2.9,72,0.00,CLR,,0.00,0.0,WeatherDisplay:10.37,2013-11-09 07:07:00,
2013-11-09 02:12:00,36.3,28.2,30.21,SSE,158,2.3,2.3,72,0.00,CLR,,0.00,0.0,WeatherDisplay:10.37,2013-11-09 07:12:00,
2013-11-09 02:17:00,36.3,27.8,30.18,SSE,158,3.1,3.1,71,0.00,CLR,,0.00,0.0,WeatherDisplay:10.37,2013-11-09 07:17:00,
2013-11-09 02:22:00,36.7,28.2,30.18,SSE,158,2.3,2.3,71,0.00,CLR,,0.00,0.0,WeatherDisplay:10.37,2013-11-09 07:22:00,
2013-11-09 02:27:00,36.7,27.8,30.18,SSE,158,2.4,0.0,70,0.00,CLR,,0.00,0.0,WeatherDisplay:10.37,2013-11-09 07:27:00,
2013-11-09 02:32:00,36.9,27.6,30.18,SSE,158,3.5,3.5,69,0.00,CLR,,0.00,0.0,WeatherDisplay:10.37,2013-11-09 07:32:00,
2013-11-09 02:37:00,36.9,27.6,30.18,SSE,158,3.5,3.5,69,0.00,CLR,,0.00,0.0,WeatherDisplay:10.37,2013-11-09 07:37:00,
2013-11-09 02:42:00,36.9,27.6,30.18,ESE,112,4.6,4.6,69,0.00,CLR,,0.00,0.0,WeatherDisplay:10.37,2013-11-09 07:42:00,
2013-11-09 02:47:00,37.0,27.5,30.18,SSE,158,4.3,4.3,68,0.00,CLR,,0.00,0.0,WeatherDisplay:10.37,2013-11-09 07:47:00,
2013-11-09 02:52:00,37.0,27.5,30.18,SSE,158,4.6,4.6,68,0.00,CLR,,0.00,0.0,WeatherDisplay:10.37,2013-11-09 07:52:00,
2013-11-09 02:57:00,37.0,27.5,30.18,ESE,112,5.8,5.8,68,0.00,CLR,,0.00,0.0,WeatherDisplay:10.37,2013-11-09 07:57:00,
2013-11-09 03:02:00,37.0,27.5,30.18,SSE,158,4.6,4.6,68,0.00,CLR,,0.00,0.0,WeatherDisplay:10.37,2013-11-09 08:02:00,
2013-11-09 03:07:00,37.0,27.1,30.18,WSW,248,3.8,4.0,67,0.00,CLR,,0.00,0.0,WeatherDisplay:10.37,2013-11-09 08:07:00,
2013-11-09 03:12:00,37.0,27.1,30.18,SSE,158,4.6,4.6,67,0.00,CLR,,0.00,0.0,WeatherDisplay:10.37,2013-11-09 08:12:00,
2013-11-09 03:17:00,37.0,27.1,30.18,SE,135,4.6,4.6,67,0.00,CLR,,0.00,0.0,WeatherDisplay:10.37,2013-11-09 08:17:00,
2013-11-09 03:22:00,37.0,27.5,30.18,SSW,202,3.5,3.5,68,0.00,CLR,,0.00,0.0,WeatherDisplay:10.37,2013-11-09 08:22:00,
2013-11-09 03:27:00,37.0,27.1,30.18,SSE,158,3.5,3.5,67,0.00,CLR,,0.00,0.0,WeatherDisplay:10.37,2013-11-09 08:27:00,
2013-11-09 03:32:00,37.0,27.1,30.18,SSW,202,3.5,3.5,67,0.00,CLR,,0.00,0.0,WeatherDisplay:10.37,2013-11-09 08:32:00,
2013-11-09 03:37:00,36.9,27.3,30.18,SSE,158,4.6,4.6,68,0.00,CLR,,0.00,0.0,WeatherDisplay:10.37,2013-11-09 08:37:00,
2013-11-09 03:42:00,37.0,27.1,30.18,SE,135,4.9,4.9,67,0.00,CLR,,0.00,0.0,WeatherDisplay:10.37,2013-11-09 08:42:00,
2013-11-09 03:47:00,37.0,27.1,30.18,SSE,158,5.8,5.8,67,0.00,CLR,,0.00,0.0,WeatherDisplay:10.37,2013-11-09 08:47:00,
2013-11-09 03:52:00,37.0,26.7,30.18,SE,135,5.8,5.8,66,0.00,CLR,,0.00,0.0,WeatherDisplay:10.37,2013-11-09 08:52:00,
2013-11-09 03:57:00,37.0,26.7,30.18,SSE,158,3.5,3.5,66,0.00,CLR,,0.00,0.0,WeatherDisplay:10.37,2013-11-09 08:57:00,
2013-11-09 04:02:00,37.0,26.7,30.15,SSW,202,4.6,4.6,66,0.00,CLR,,0.00,0.0,WeatherDisplay:10.37,2013-11-09 09:02:00,
2013-11-09 04:07:00,37.0,26.7,30.15,SSW,202,3.5,3.5,66,0.00,CLR,,0.00,0.0,WeatherDisplay:10.37,2013-11-09 09:07:00,
2013-11-09 04:12:00,36.9,26.6,30.15,ESE,112,4.6,4.6,66,0.00,CLR,,0.00,0.0,WeatherDisplay:10.37,2013-11-09 09:12:00,
2013-11-09 04:17:00,37.0,26.4,30.15,SSE,158,4.6,4.6,65,0.00,CLR,,0.00,0.0,WeatherDisplay:10.37,2013-11-09 09:17:00,
2013-11-09 04:22:00,37.0,26.4,30.15,SSW,202,6.0,6.0,65,0.00,CLR,,0.00,0.0,WeatherDisplay:10.37,2013-11-09 09:22:00,
2013-11-09 04:27:00,37.0,26.4,30.15,SSE,158,4.6,4.6,65,0.00,CLR,,0.00,0.0,WeatherDisplay:10.37,2013-11-09 09:27:00,
2013-11-09 04:32:00,37.0,26.4,30.15,East,90,4.6,4.6,65,0.00,CLR,,0.00,0.0,WeatherDisplay:10.37,2013-11-09 09:32:00,
2013-11-09 04:37:00,37.0,26.4,30.15,ESE,112,3.5,3.5,65,0.00,CLR,,0.00,0.0,WeatherDisplay:10.37,2013-11-09 09:37:00,
2013-11-09 04:42:00,37.0,26.4,30.15,SSE,158,4.6,4.6,65,0.00,CLR,,0.00,0.0,WeatherDisplay:10.37,2013-11-09 09:42:00,
2013-11-09 04:47:00,37.0,26.4,30.15,WNW,292,5.8,5.8,65,0.00,CLR,,0.00,0.0,WeatherDisplay:10.37,2013-11-09 09:47:00,
2013-11-09 04:52:00,37.2,26.2,30.15,SSE,158,6.0,6.0,64,0.00,CLR,,0.00,0.0,WeatherDisplay:10.37,2013-11-09 09:52:00,
2013-11-09 04:57:00,37.0,26.0,30.15,SSE,158,4.6,4.6,64,0.00,CLR,,0.00,0.0,WeatherDisplay:10.37,2013-11-09 09:57:00,
2013-11-09 05:02:00,37.2,26.2,30.15,SSE,158,4.6,4.6,64,0.00,CLR,,0.00,0.0,WeatherDisplay:10.37,2013-11-09 10:02:00,
2013-11-09 05:07:00,37.4,25.9,30.15,SSW,202,6.9,6.9,63,0.00,CLR,,0.00,0.0,WeatherDisplay:10.37,2013-11-09 10:07:00,
2013-11-09 05:12:00,37.4,25.6,30.15,SSW,202,5.8,5.8,62,0.00,CLR,,0.00,0.0,WeatherDisplay:10.37,2013-11-09 10:12:00,
2013-11-09 05:17:00,37.6,25.7,30.15,SSW,202,6.9,6.9,62,0.00,CLR,,0.00,0.0,WeatherDisplay:10.37,2013-11-09 10:17:00,
2013-11-09 05:23:00,37.4,25.6,30.15,SSE,158,4.6,4.6,62,0.00,CLR,,0.00,0.0,WeatherDisplay:10.37,2013-11-09 10:23:00,
2013-11-09 05:28:00,37.4,25.6,30.15,SSE,158,6.9,6.9,62,0.00,CLR,,0.00,0.0,WeatherDisplay:10.37,2013-11-09 10:28:00,
2013-11-09 05:33:00,37.4,25.6,30.15,SSE,158,6.9,6.9,62,0.00,CLR,,0.00,0.0,WeatherDisplay:10.37,2013-11-09 10:33:00,
2013-11-09 05:38:00,37.4,25.6,30.15,ESE,112,5.8,5.8,62,0.00,CLR,,0.00,0.0,WeatherDisplay:10.37,2013-11-09 10:38:00,
2013-11-09 05:43:00,37.4,25.6,30.15,SSE,158,6.9,6.9,62,0.00,CLR,,0.00,0.0,WeatherDisplay:10.37,2013-11-09 10:43:00,
2013-11-09 05:48:00,37.6,25.7,30.15,SSE,158,5.8,5.8,62,0.00,CLR,,0.00,0.0,WeatherDisplay:10.37,2013-11-09 10:48:00,
2013-11-09 05:53:00,37.6,25.3,30.15,SSE,158,6.9,6.9,61,0.00,CLR,,0.00,0.0,WeatherDisplay:10.37,2013-11-09 10:53:00,
2013-11-09 05:58:00,37.6,25.3,30.15,SSE,158,5.8,5.8,61,0.00,CLR,,0.00,0.0,WeatherDisplay:10.37,2013-11-09 10:58:00,
2013-11-09 06:03:00,37.6,25.3,30.15,SSE,158,6.4,6.4,61,0.00,CLR,,0.00,0.0,WeatherDisplay:10.37,2013-11-09 11:03:00,
2013-11-09 06:08:00,37.6,25.3,30.15,ESE,112,4.3,4.3,61,0.00,CLR,,0.00,0.0,WeatherDisplay:10.37,2013-11-09 11:08:00,
2013-11-09 06:13:00,37.4,25.2,30.15,SSE,158,2.9,2.9,61,0.00,CLR,,0.00,0.0,WeatherDisplay:10.37,2013-11-09 11:13:00,
2013-11-09 06:18:00,37.4,25.2,30.15,SSW,202,3.5,3.5,61,0.00,CLR,,0.00,0.0,WeatherDisplay:10.37,2013-11-09 11:18:00,
2013-11-09 06:23:00,37.4,25.2,30.15,SSW,202,4.3,4.3,61,0.00,CLR,,0.00,0.0,WeatherDisplay:10.37,2013-11-09 11:23:00,
2013-11-09 06:28:00,37.6,25.3,30.15,South,180,4.6,4.6,61,0.00,CLR,,0.00,0.0,WeatherDisplay:10.37,2013-11-09 11:28:00,
2013-11-09 06:33:00,37.6,25.3,30.15,SSW,202,6.9,6.9,61,0.00,CLR,,0.00,0.0,WeatherDisplay:10.37,2013-11-09 11:33:00,
2013-11-09 06:38:00,37.6,24.9,30.15,SSW,202,5.8,5.8,60,0.00,CLR,,0.00,0.0,WeatherDisplay:10.37,2013-11-09 11:38:00,
2013-11-09 06:43:00,37.8,25.1,30.15,SSE,158,8.1,8.1,60,0.00,CLR,,0.00,0.0,WeatherDisplay:10.37,2013-11-09 11:43:00,
2013-11-09 06:48:00,37.9,24.9,30.15,SSE,158,6.9,6.9,59,0.00,CLR,,0.00,0.0,WeatherDisplay:10.37,2013-11-09 11:48:00,
2013-11-09 06:53:00,37.9,24.9,30.15,SSE,158,5.8,5.8,59,0.00,CLR,,0.00,0.0,WeatherDisplay:10.37,2013-11-09 11:53:00,
2013-11-09 06:58:00,38.1,24.6,30.15,SSW,202,9.2,9.2,58,0.00,CLR,,0.00,0.0,WeatherDisplay:10.37,2013-11-09 11:58:00,
2013-11-09 07:03:00,38.3,24.4,30.15,SSE,158,10.4,10.4,57,0.00,CLR,,0.00,0.0,WeatherDisplay:10.37,2013-11-09 12:03:00,
2013-11-09 07:08:00,38.5,24.6,30.15,SSE,158,8.1,8.1,57,0.00,CLR,,0.00,0.0,WeatherDisplay:10.37,2013-11-09 12:08:00,
2013-11-09 07:13:00,38.5,24.6,30.15,SSW,202,5.8,5.8,57,0.00,CLR,,0.00,0.0,WeatherDisplay:10.37,2013-11-09 12:13:00,
2013-11-09 07:18:00,38.7,24.3,30.15,SSW,202,6.9,6.9,56,0.00,CLR,,0.00,0.0,WeatherDisplay:10.37,2013-11-09 12:18:00,
2013-11-09 07:23:00,38.8,24.5,30.15,SSW,202,10.4,10.4,56,0.00,CLR,,0.00,0.0,WeatherDisplay:10.37,2013-11-09 12:23:00,
2013-11-09 07:28:00,38.8,24.5,30.15,SSW,202,8.1,8.1,56,0.00,CLR,,0.00,0.0,WeatherDisplay:10.37,2013-11-09 12:28:00,
2013-11-09 07:33:00,39.0,24.2,30.12,SSE,158,11.5,11.5,55,0.00,CLR,,0.00,0.0,WeatherDisplay:10.37,2013-11-09 12:33:00,
2013-11-09 07:38:00,39.9,24.6,30.12,SSE,158,10.4,10.4,54,0.00,CLR,,0.00,0.0,WeatherDisplay:10.37,2013-11-09 12:38:00,
2013-11-09 07:43:00,41.2,25.3,30.12,SSW,202,6.0,6.0,53,0.00,CLR,,0.00,0.0,WeatherDisplay:10.37,2013-11-09 12:43:00,
2013-11-09 07:48:00,41.5,25.7,30.12,SSE,158,4.6,4.6,53,0.00,CLR,,0.00,0.0,WeatherDisplay:10.37,2013-11-09 12:48:00,
2013-11-09 07:53:00,41.9,25.5,30.12,SSW,202,11.5,11.5,52,0.00,CLR,,0.00,0.0,WeatherDisplay:10.37,2013-11-09 12:53:00,
2013-11-09 07:58:00,42.6,25.7,30.12,SSW,202,10.4,10.4,51,0.00,CLR,,0.00,100.0,WeatherDisplay:10.37,2013-11-09 12:58:00,
2013-11-09 08:03:00,43.0,25.6,30.12,SSW,202,10.4,10.4,50,0.00,CLR,,0.00,100.0,WeatherDisplay:10.37,2013-11-09 13:03:00,
2013-11-09 08:08:00,43.3,25.9,30.12,SSW,202,8.1,8.1,50,0.00,CLR,,0.00,100.0,WeatherDisplay:10.37,2013-11-09 13:08:00,
2013-11-09 08:13:00,43.9,26.4,30.15,SSW,202,8.5,8.5,50,0.00,CLR,,0.00,100.0,WeatherDisplay:10.37,2013-11-09 13:13:00,
2013-11-09 08:18:00,44.2,26.3,30.15,SSW,202,6.7,6.7,49,0.00,CLR,,0.00,100.0,WeatherDisplay:10.37,2013-11-09 13:18:00,
2013-11-09 08:23:00,45.0,26.4,30.15,SSW,202,8.1,8.1,48,0.00,CLR,,0.00,100.0,WeatherDisplay:10.37,2013-11-09 13:23:00,
2013-11-09 08:28:00,45.5,26.9,30.12,SSW,202,10.4,10.4,48,0.00,CLR,,0.00,200.0,WeatherDisplay:10.37,2013-11-09 13:28:00,
2013-11-09 08:33:00,45.3,26.8,30.12,SSW,202,5.8,5.8,48,0.00,CLR,,0.00,200.0,WeatherDisplay:10.37,2013-11-09 13:33:00,
2013-11-09 08:38:00,46.0,26.9,30.12,SSW,202,9.2,9.2,47,0.00,CLR,,0.00,200.0,WeatherDisplay:10.37,2013-11-09 13:38:00,
2013-11-09 08:43:00,46.2,27.1,30.12,SSW,202,4.6,4.6,47,0.00,CLR,,0.00,200.0,WeatherDisplay:10.37,2013-11-09 13:43:00,
2013-11-09 08:48:00,46.9,27.2,30.12,SSW,202,6.0,6.0,46,0.00,CLR,,0.00,200.0,WeatherDisplay:10.37,2013-11-09 13:48:00,
2013-11-09 08:53:00,46.9,27.2,30.12,SSE,158,8.5,9.2,46,0.00,CLR,,0.00,200.0,WeatherDisplay:10.37,2013-11-09 13:53:00,
2013-11-09 08:58:00,47.3,27.5,30.12,SSE,158,8.5,8.5,46,0.00,CLR,,0.00,200.0,WeatherDisplay:10.37,2013-11-09 13:58:00,
2013-11-09 09:03:00,47.5,27.2,30.12,SSW,202,10.4,10.4,45,0.00,CLR,,0.00,300.0,WeatherDisplay:10.37,2013-11-09 14:03:00,
2013-11-09 09:08:00,48.2,27.3,30.12,WNW,292,9.2,9.2,44,0.00,CLR,,0.00,300.0,WeatherDisplay:10.37,2013-11-09 14:08:00,
2013-11-09 09:13:00,48.4,26.9,30.12,SSW,202,11.5,11.5,43,0.00,CLR,,0.00,300.0,WeatherDisplay:10.37,2013-11-09 14:13:00,
2013-11-09 09:18:00,48.9,26.8,30.12,SSW,202,9.2,9.2,42,0.00,CLR,,0.00,300.0,WeatherDisplay:10.37,2013-11-09 14:18:00,
2013-11-09 09:23:00,49.1,27.0,30.12,WSW,248,13.8,13.8,42,0.00,CLR,,0.00,300.0,WeatherDisplay:10.37,2013-11-09 14:23:00,
2013-11-09 09:28:00,49.1,26.4,30.12,WSW,248,12.7,12.7,41,0.00,CLR,,0.00,300.0,WeatherDisplay:10.37,2013-11-09 14:28:00,
2013-11-09 09:33:00,50.2,27.4,30.12,SSE,158,5.8,5.8,41,0.00,CLR,,0.00,400.0,WeatherDisplay:10.37,2013-11-09 14:33:00,
2013-11-09 09:38:00,50.4,27.5,30.12,SSW,202,8.1,8.1,41,0.00,CLR,,0.00,400.0,WeatherDisplay:10.37,2013-11-09 14:38:00,
2013-11-09 09:43:00,49.3,26.5,30.12,WSW,248,11.5,11.5,41,0.00,CLR,,0.00,400.0,WeatherDisplay:10.37,2013-11-09 14:43:00,
2013-11-09 09:48:00,50.0,27.2,30.12,WSW,248,9.2,9.2,41,0.00,CLR,,0.00,400.0,WeatherDisplay:10.37,2013-11-09 14:48:00,
2013-11-09 09:53:00,50.2,26.8,30.12,South,180,12.7,12.7,40,0.00,CLR,,0.00,400.0,WeatherDisplay:10.37,2013-11-09 14:53:00,
2013-11-09 09:58:00,50.5,27.1,30.12,SSE,158,8.1,8.1,40,0.00,CLR,,0.00,400.0,WeatherDisplay:10.37,2013-11-09 14:58:00,
2013-11-09 10:03:00,50.2,26.8,30.12,SSW,202,8.1,8.1,40,0.00,CLR,,0.00,500.0,WeatherDisplay:10.37,2013-11-09 15:03:00,
2013-11-09 10:08:00,50.9,27.4,30.12,SSW,202,8.1,8.1,40,0.00,CLR,,0.00,500.0,WeatherDisplay:10.37,2013-11-09 15:08:00,
2013-11-09 10:13:00,50.9,27.4,30.09,WSW,248,11.5,11.5,40,0.00,CLR,,0.00,600.0,WeatherDisplay:10.37,2013-11-09 15:13:00,
2013-11-09 10:18:00,51.4,27.9,30.09,West,270,8.1,8.1,40,0.00,CLR,,0.00,700.0,WeatherDisplay:10.37,2013-11-09 15:18:00,
2013-11-09 10:23:00,52.2,28.5,30.09,SW,225,9.2,9.2,40,0.00,CLR,,0.00,700.0,WeatherDisplay:10.37,2013-11-09 15:23:00,
2013-11-09 10:28:00,52.3,28.1,30.09,WNW,292,9.2,9.2,39,0.00,CLR,,0.00,700.0,WeatherDisplay:10.37,2013-11-09 15:28:00,
2013-11-09 10:33:00,52.5,28.2,30.09,WNW,292,8.5,8.5,39,0.00,CLR,,0.00,800.0,WeatherDisplay:10.37,2013-11-09 15:33:00,
2013-11-09 10:39:00,52.9,28.6,30.09,SSW,202,10.4,10.4,39,0.00,CLR,,0.00,800.0,WeatherDisplay:10.37,2013-11-09 15:39:00,
2013-11-09 10:44:00,52.5,28.2,30.09,SW,225,15.0,15.0,39,0.00,CLR,,0.00,800.0,WeatherDisplay:10.37,2013-11-09 15:44:00,
2013-11-09 10:49:00,52.0,27.8,30.09,SSW,202,11.5,11.5,39,0.00,CLR,,0.00,800.0,WeatherDisplay:10.37,2013-11-09 15:49:00,
2013-11-09 10:54:00,52.2,27.9,30.09,SSW,202,17.3,17.3,39,0.00,CLR,,0.00,900.0,WeatherDisplay:10.37,2013-11-09 15:54:00,
2013-11-09 10:59:00,52.5,28.2,30.06,SSW,202,13.8,13.8,39,0.00,CLR,,0.00,900.0,WeatherDisplay:10.37,2013-11-09 15:59:00,
2013-11-09 11:04:00,52.0,27.8,30.06,SSW,202,13.8,14.5,39,0.00,CLR,,0.00,900.0,WeatherDisplay:10.37,2013-11-09 16:04:00,
2013-11-09 11:09:00,52.3,28.7,30.06,SSW,202,15.0,15.0,40,0.00,CLR,,0.00,900.0,WeatherDisplay:10.37,2013-11-09 16:09:00,
2013-11-09 11:14:00,52.3,28.7,30.06,SSW,202,12.7,12.7,40,0.00,CLR,,0.00,900.0,WeatherDisplay:10.37,2013-11-09 16:14:00,
2013-11-09 11:19:00,52.0,28.4,30.06,SSW,202,15.0,15.0,40,0.00,CLR,,0.00,900.0,WeatherDisplay:10.37,2013-11-09 16:19:00,
2013-11-09 11:24:00,52.0,28.4,30.06,SSW,202,13.8,13.8,40,0.00,CLR,,0.00,900.0,WeatherDisplay:10.37,2013-11-09 16:24:00,
2013-11-09 11:29:00,53.1,30.0,30.06,SSW,202,10.5,10.5,41,0.00,CLR,,0.00,900.0,WeatherDisplay:10.37,2013-11-09 16:29:00,
2013-11-09 11:34:00,54.0,30.2,30.06,SSW,202,13.8,13.8,40,0.00,CLR,,0.00,800.0,WeatherDisplay:10.37,2013-11-09 16:34:00,
2013-11-09 11:39:00,54.7,30.8,30.06,WSW,248,19.9,19.9,40,0.00,CLR,,0.00,800.0,WeatherDisplay:10.37,2013-11-09 16:39:00,
2013-11-09 11:44:00,54.9,30.3,30.06,WSW,248,10.4,10.4,39,0.00,CLR,,0.00,800.0,WeatherDisplay:10.37,2013-11-09 16:44:00,
2013-11-09 11:49:00,55.8,31.2,30.06,SSW,202,6.9,6.9,39,0.00,CLR,,0.00,800.0,WeatherDisplay:10.37,2013-11-09 16:49:00,
2013-11-09 11:54:00,56.3,31.0,30.06,WSW,248,8.1,8.5,38,0.00,CLR,,0.00,800.0,WeatherDisplay:10.37,2013-11-09 16:54:00,
2013-11-09 11:59:00,56.3,31.0,30.03,SSW,202,23.0,23.0,38,0.00,CLR,,0.00,800.0,WeatherDisplay:10.37,2013-11-09 16:59:00,
2013-11-09 12:04:00,56.3,31.0,30.03,West,270,15.0,15.0,38,0.00,CLR,,0.00,800.0,WeatherDisplay:10.37,2013-11-09 17:04:00,
2013-11-09 12:09:00,56.5,31.2,30.03,WSW,248,10.4,10.4,38,0.00,CLR,,0.00,800.0,WeatherDisplay:10.37,2013-11-09 17:09:00,
2013-11-09 12:14:00,56.7,31.3,30.03,SSW,202,10.0,10.0,38,0.00,CLR,,0.00,700.0,WeatherDisplay:10.37,2013-11-09 17:14:00,
2013-11-09 12:19:00,56.8,31.5,30.03,SSW,202,11.5,11.5,38,0.00,CLR,,0.00,700.0,WeatherDisplay:10.37,2013-11-09 17:19:00,
2013-11-09 12:24:00,57.0,31.6,30.03,WNW,292,13.0,13.0,38,0.00,CLR,,0.00,700.0,WeatherDisplay:10.37,2013-11-09 17:24:00,
2013-11-09 12:29:00,57.9,31.8,30.03,WSW,248,12.7,12.7,37,0.00,CLR,,0.00,700.0,WeatherDisplay:10.37,2013-11-09 17:29:00,
2013-11-09 12:34:00,58.1,31.9,30.03,SSW,202,12.7,12.7,37,0.00,CLR,,0.00,700.0,WeatherDisplay:10.37,2013-11-09 17:34:00,
2013-11-09 12:39:00,58.3,32.1,30.03,SSE,158,15.0,15.0,37,0.00,CLR,,0.00,700.0,WeatherDisplay:10.37,2013-11-09 17:39:00,
2013-11-09 12:44:00,58.8,32.6,30.00,SSW,202,13.8,13.8,37,0.00,CLR,,0.00,600.0,WeatherDisplay:10.37,2013-11-09 17:44:00,
2013-11-09 12:49:00,58.8,31.9,30.00,WSW,248,15.0,15.0,36,0.00,CLR,,0.00,600.0,WeatherDisplay:10.37,2013-11-09 17:49:00,
2013-11-09 12:54:00,59.2,32.2,30.00,SSW,202,11.5,11.5,36,0.00,CLR,,0.00,600.0,WeatherDisplay:10.37,2013-11-09 17:54:00,
2013-11-09 12:59:00,58.6,31.7,30.00,WSW,248,14.7,14.7,36,0.00,CLR,,0.00,600.0,WeatherDisplay:10.37,2013-11-09 17:59:00,
2013-11-09 13:04:00,58.5,31.6,30.00,WNW,292,21.9,21.9,36,0.00,CLR,,0.00,600.0,WeatherDisplay:10.37,2013-11-09 18:04:00,
2013-11-09 13:09:00,58.8,31.9,30.00,WSW,248,22.1,22.1,36,0.00,CLR,,0.00,600.0,WeatherDisplay:10.37,2013-11-09 18:09:00,
2013-11-09 13:14:00,59.5,32.5,30.00,West,270,12.7,12.7,36,0.00,CLR,,0.00,600.0,WeatherDisplay:10.37,2013-11-09 18:14:00,
2013-11-09 13:19:00,59.4,32.4,30.00,WSW,248,17.3,17.3,36,0.00,CLR,,0.00,600.0,WeatherDisplay:10.37,2013-11-09 18:19:00,
2013-11-09 13:24:00,58.8,31.9,30.00,SSW,202,12.7,12.7,36,0.00,CLR,,0.00,500.0,WeatherDisplay:10.37,2013-11-09 18:24:00,
2013-11-09 13:29:00,59.5,32.5,30.00,WSW,248,13.8,13.8,36,0.00,CLR,,0.00,500.0,WeatherDisplay:10.37,2013-11-09 18:29:00,
2013-11-09 13:34:00,59.9,32.9,30.00,WSW,248,15.0,15.0,36,0.00,CLR,,0.00,500.0,WeatherDisplay:10.37,2013-11-09 18:34:00,
2013-11-09 13:39:00,60.3,33.2,30.00,SSW,202,12.3,12.3,36,0.00,CLR,,0.00,500.0,WeatherDisplay:10.37,2013-11-09 18:39:00,
2013-11-09 13:44:00,59.4,32.4,29.97,WSW,248,19.6,19.6,36,0.00,CLR,,0.00,400.0,WeatherDisplay:10.37,2013-11-09 18:44:00,
2013-11-09 13:49:00,58.8,31.9,29.97,SSW,202,19.6,19.6,36,0.00,CLR,,0.00,400.0,WeatherDisplay:10.37,2013-11-09 18:49:00,
2013-11-09 13:54:00,59.7,32.7,29.97,SSW,202,12.7,12.7,36,0.00,CLR,,0.00,500.0,WeatherDisplay:10.37,2013-11-09 18:54:00,
2013-11-09 13:59:00,59.9,32.9,29.97,West,270,19.6,19.6,36,0.00,CLR,,0.00,500.0,WeatherDisplay:10.37,2013-11-09 18:59:00,
2013-11-09 14:04:00,60.4,33.3,29.97,SSW,202,9.2,9.2,36,0.00,CLR,,0.00,400.0,WeatherDisplay:10.37,2013-11-09 19:04:00,
2013-11-09 14:09:00,61.2,33.3,29.97,WSW,248,9.8,9.8,35,0.00,CLR,,0.00,400.0,WeatherDisplay:10.37,2013-11-09 19:09:00,
2013-11-09 14:14:00,60.3,32.5,29.97,WNW,292,25.3,25.3,35,0.00,CLR,,0.00,400.0,WeatherDisplay:10.37,2013-11-09 19:14:00,
2013-11-09 14:19:00,59.7,32.0,29.97,WSW,248,15.0,15.0,35,0.00,CLR,,0.00,400.0,WeatherDisplay:10.37,2013-11-09 19:19:00,
2013-11-09 14:24:00,59.5,31.8,29.97,SW,225,13.8,13.8,35,0.00,CLR,,0.00,400.0,WeatherDisplay:10.37,2013-11-09 19:24:00,
2013-11-09 14:29:00,59.5,31.8,30.00,SSW,202,21.9,21.9,35,0.00,CLR,,0.00,300.0,WeatherDisplay:10.37,2013-11-09 19:29:00,
2013-11-09 14:34:00,59.2,31.5,30.00,WSW,248,14.7,14.7,35,0.00,CLR,,0.00,300.0,WeatherDisplay:10.37,2013-11-09 19:34:00,
2013-11-09 14:39:00,58.8,31.9,30.00,WNW,292,13.8,13.8,36,0.00,CLR,,0.00,300.0,WeatherDisplay:10.37,2013-11-09 19:39:00,
2013-11-09 14:44:00,59.7,32.0,29.97,West,270,13.8,13.8,35,0.00,CLR,,0.00,300.0,WeatherDisplay:10.37,2013-11-09 19:44:00,
2013-11-09 14:49:00,59.9,32.2,29.97,SSW,202,11.5,11.5,35,0.00,CLR,,0.00,300.0,WeatherDisplay:10.37,2013-11-09 19:49:00,
2013-11-09 14:54:00,59.9,32.2,29.97,SSW,202,10.4,10.4,35,0.00,CLR,,0.00,300.0,WeatherDisplay:10.37,2013-11-09 19:54:00,
2013-11-09 14:59:00,60.3,32.5,29.97,SSE,158,11.5,11.5,35,0.00,CLR,,0.00,300.0,WeatherDisplay:10.37,2013-11-09 19:59:00,
2013-11-09 15:04:00,60.4,32.6,29.97,WSW,248,17.3,17.3,35,0.00,CLR,,0.00,300.0,WeatherDisplay:10.37,2013-11-09 20:04:00,
2013-11-09 15:09:00,60.8,33.0,29.97,SSW,202,12.8,12.8,35,0.00,CLR,,0.00,300.0,WeatherDisplay:10.37,2013-11-09 20:09:00,
2013-11-09 15:14:00,60.4,32.6,30.00,SSW,202,13.8,13.8,35,0.00,CLR,,0.00,300.0,WeatherDisplay:10.37,2013-11-09 20:14:00,
2013-11-09 15:19:00,60.1,32.3,30.00,WSW,248,11.5,11.5,35,0.00,SCT,,0.00,200.0,WeatherDisplay:10.37,2013-11-09 20:19:00,
2013-11-09 15:24:00,60.4,32.6,30.00,WNW,292,12.7,12.7,35,0.00,SCT,,0.00,200.0,WeatherDisplay:10.37,2013-11-09 20:24:00,
2013-11-09 15:29:00,60.1,32.3,29.97,WSW,248,17.3,17.3,35,0.00,SCT,,0.00,200.0,WeatherDisplay:10.37,2013-11-09 20:29:00,
2013-11-09 15:34:00,60.3,33.2,29.97,West,270,21.9,21.9,36,0.00,SCT,,0.00,200.0,WeatherDisplay:10.37,2013-11-09 20:34:00,
2013-11-09 15:39:00,60.1,32.3,29.97,WNW,292,20.1,20.1,35,0.00,SCT,,0.00,200.0,WeatherDisplay:10.37,2013-11-09 20:39:00,
2013-11-09 15:44:00,60.1,32.3,30.00,SSW,202,16.6,16.6,35,0.00,SCT,,0.00,200.0,WeatherDisplay:10.37,2013-11-09 20:44:00,
2013-11-09 15:49:00,59.9,32.2,30.00,WNW,292,17.3,17.3,35,0.00,SCT,,0.00,200.0,WeatherDisplay:10.37,2013-11-09 20:49:00,
2013-11-09 15:54:00,59.4,31.7,30.00,SSW,202,10.4,11.4,35,0.00,BKN,,0.00,100.0,WeatherDisplay:10.37,2013-11-09 20:54:00,
2013-11-09 15:59:00,59.5,31.8,29.97,SSW,202,10.4,10.4,35,0.00,BKN,,0.00,100.0,WeatherDisplay:10.37,2013-11-09 20:59:00,
2013-11-09 16:04:00,59.5,31.8,29.97,WSW,248,12.7,12.7,35,0.00,BKN,,0.00,100.0,WeatherDisplay:10.37,2013-11-09 21:04:00,
2013-11-09 16:09:00,59.5,31.8,29.97,WNW,292,8.1,8.1,35,0.00,BKN,,0.00,100.0,WeatherDisplay:10.37,2013-11-09 21:09:00,
2013-11-09 16:14:00,59.4,31.7,29.97,WSW,248,15.0,15.0,35,0.00,BKN,,0.00,100.0,WeatherDisplay:10.37,2013-11-09 21:14:00,
2013-11-09 16:19:00,59.2,31.5,29.97,WNW,292,17.3,17.3,35,0.00,BKN,,0.00,100.0,WeatherDisplay:10.37,2013-11-09 21:19:00,
2013-11-09 16:25:00,58.8,31.9,29.97,NNW,338,9.8,9.8,36,0.00,BKN,,0.00,100.0,WeatherDisplay:10.37,2013-11-09 21:25:00,
2013-11-09 16:29:00,58.6,31.7,29.97,SSW,202,12.3,12.3,36,0.00,BKN,,0.00,100.0,WeatherDisplay:10.37,2013-11-09 21:29:00,
2013-11-09 16:35:00,58.5,31.6,29.97,WSW,248,5.8,6.0,36,0.00,CLR,,0.00,0.0,WeatherDisplay:10.37,2013-11-09 21:35:00,
2013-11-09 16:40:00,58.3,31.4,29.97,SSW,202,12.7,12.7,36,0.00,CLR,,0.00,0.0,WeatherDisplay:10.37,2013-11-09 21:40:00,
2013-11-09 16:45:00,57.9,31.1,29.97,SSW,202,13.0,13.0,36,0.00,CLR,,0.00,0.0,WeatherDisplay:10.37,2013-11-09 21:45:00,
2013-11-09 16:50:00,57.7,30.9,29.97,SSW,202,6.9,6.9,36,0.00,CLR,,0.00,0.0,WeatherDisplay:10.37,2013-11-09 21:50:00,
2013-11-09 16:55:00,57.6,30.8,29.97,WSW,248,15.0,15.0,36,0.00,CLR,,0.00,0.0,WeatherDisplay:10.37,2013-11-09 21:55:00,
2013-11-09 17:00:00,56.8,30.1,29.97,SSW,202,12.7,12.7,36,0.00,CLR,,0.00,0.0,WeatherDisplay:10.37,2013-11-09 22:00:00,
2013-11-09 17:05:00,56.5,29.8,29.97,SW,225,8.1,8.1,36,0.00,CLR,,0.00,0.0,WeatherDisplay:10.37,2013-11-09 22:05:00,
2013-11-09 17:10:00,56.1,30.2,29.97,NNW,338,9.2,9.2,37,0.00,CLR,,0.00,0.0,WeatherDisplay:10.37,2013-11-09 22:10:00,
2013-11-09 17:15:00,55.9,30.0,29.97,SSW,202,9.2,9.2,37,0.00,CLR,,0.00,0.0,WeatherDisplay:10.37,2013-11-09 22:15:00,
2013-11-09 17:20:00,55.6,29.7,29.97,WSW,248,12.7,12.7,37,0.00,CLR,,0.00,0.0,WeatherDisplay:10.37,2013-11-09 22:20:00,
2013-11-09 17:25:00,55.4,29.5,29.97,SSW,202,8.1,8.1,37,0.00,CLR,,0.00,0.0,WeatherDisplay:10.37,2013-11-09 22:25:00,
2013-11-09 17:30:00,55.2,29.4,29.97,South,180,6.9,6.9,37,0.00,CLR,,0.00,0.0,WeatherDisplay:10.37,2013-11-09 22:30:00,
2013-11-09 17:35:00,54.7,29.5,29.97,SSW,202,5.8,5.8,38,0.00,CLR,,0.00,0.0,WeatherDisplay:10.37,2013-11-09 22:35:00,
2013-11-09 17:40:00,54.5,29.4,29.97,WSW,248,7.4,7.4,38,0.00,CLR,,0.00,0.0,WeatherDisplay:10.37,2013-11-09 22:40:00,
2013-11-09 17:45:00,54.5,29.4,29.97,SSE,158,6.9,6.9,38,0.00,CLR,,0.00,0.0,WeatherDisplay:10.37,2013-11-09 22:45:00,
2013-11-09 17:50:00,54.1,29.1,29.97,WSW,248,9.2,9.2,38,0.00,CLR,,0.00,0.0,WeatherDisplay:10.37,2013-11-09 22:50:00,
2013-11-09 17:55:00,53.8,28.7,29.97,SSW,202,5.8,5.8,38,0.00,CLR,,0.00,0.0,WeatherDisplay:10.37,2013-11-09 22:55:00,
2013-11-09 18:00:00,53.8,28.7,30.00,WSW,248,9.2,9.2,38,0.00,CLR,,0.00,0.0,WeatherDisplay:10.37,2013-11-09 23:00:00,
2013-11-09 18:05:00,53.8,28.7,30.00,SSW,202,6.9,6.9,38,0.00,CLR,,0.00,0.0,WeatherDisplay:10.37,2013-11-09 23:05:00,
2013-11-09 18:10:00,53.6,28.6,30.00,WNW,292,8.5,8.5,38,0.00,CLR,,0.00,0.0,WeatherDisplay:10.37,2013-11-09 23:10:00,
2013-11-09 18:15:00,53.4,29.1,30.00,SSW,202,12.1,12.1,39,0.00,CLR,,0.00,0.0,WeatherDisplay:10.37,2013-11-09 23:15:00,
2013-11-09 18:20:00,53.2,28.9,30.00,SSW,202,9.2,9.2,39,0.00,CLR,,0.00,0.0,WeatherDisplay:10.37,2013-11-09 23:20:00,
2013-11-09 18:25:00,53.1,28.7,30.00,SSW,202,5.8,5.8,39,0.00,CLR,,0.00,0.0,WeatherDisplay:10.37,2013-11-09 23:25:00,
2013-11-09 18:30:00,53.2,28.9,30.00,SSW,202,8.1,8.1,39,0.00,CLR,,0.00,0.0,WeatherDisplay:10.37,2013-11-09 23:30:00,
2013-11-09 18:35:00,53.1,28.7,30.00,WNW,292,8.1,8.1,39,0.00,CLR,,0.00,0.0,WeatherDisplay:10.37,2013-11-09 23:35:00,
2013-11-09 18:40:00,53.1,28.7,30.00,SSW,202,11.5,11.5,39,0.00,CLR,,0.00,0.0,WeatherDisplay:10.37,2013-11-09 23:40:00,
2013-11-09 18:45:00,53.1,28.7,30.00,SSW,202,8.1,8.1,39,0.00,CLR,,0.00,0.0,WeatherDisplay:10.37,2013-11-09 23:45:00,
2013-11-09 18:50:00,53.1,28.7,30.00,SSW,202,5.6,5.6,39,0.00,CLR,,0.00,0.0,WeatherDisplay:10.37,2013-11-09 23:50:00,
2013-11-09 18:55:00,52.9,28.6,30.00,WSW,248,9.2,9.2,39,0.00,CLR,,0.00,0.0,WeatherDisplay:10.37,2013-11-09 23:55:00,
2013-11-09 19:00:00,52.9,28.6,30.00,WNW,292,8.1,8.1,39,0.00,CLR,,0.00,0.0,WeatherDisplay:10.37,2013-11-10 00:00:00,
2013-11-09 19:05:00,52.5,28.9,30.00,WSW,248,5.8,5.8,40,0.00,CLR,,0.00,0.0,WeatherDisplay:10.37,2013-11-10 00:05:00,
2013-11-09 19:10:00,52.5,28.9,30.00,WNW,292,11.5,11.5,40,0.00,CLR,,0.00,0.0,WeatherDisplay:10.37,2013-11-10 00:10:00,
2013-11-09 19:15:00,52.5,28.9,30.00,WNW,292,6.9,6.9,40,0.00,CLR,,0.00,0.0,WeatherDisplay:10.37,2013-11-10 00:15:00,
2013-11-09 19:20:00,52.5,28.9,30.00,SW,225,10.4,10.4,40,0.00,CLR,,0.00,0.0,WeatherDisplay:10.37,2013-11-10 00:20:00,
2013-11-09 19:25:00,52.7,29.0,30.00,WSW,248,10.4,10.4,40,0.00,CLR,,0.00,0.0,WeatherDisplay:10.37,2013-11-10 00:25:00,
2013-11-09 19:30:00,52.3,28.7,30.00,WNW,292,13.8,13.8,40,0.00,CLR,,0.00,0.0,WeatherDisplay:10.37,2013-11-10 00:30:00,
2013-11-09 19:35:00,52.3,28.7,30.00,WNW,292,8.1,8.1,40,0.00,CLR,,0.00,0.0,WeatherDisplay:10.37,2013-11-10 00:35:00,
2013-11-09 19:40:00,52.2,28.5,30.00,WSW,248,9.4,9.4,40,0.00,CLR,,0.00,0.0,WeatherDisplay:10.37,2013-11-10 00:40:00,
2013-11-09 19:45:00,51.8,28.8,30.00,WSW,248,8.1,8.1,41,0.00,CLR,,0.00,0.0,WeatherDisplay:10.37,2013-11-10 00:45:00,
2013-11-09 19:50:00,51.6,28.7,30.00,WNW,292,9.2,9.2,41,0.00,CLR,,0.00,0.0,WeatherDisplay:10.37,2013-11-10 00:50:00,
2013-11-09 19:55:00,51.6,28.7,30.00,SSE,158,6.2,6.4,41,0.00,CLR,,0.00,0.0,WeatherDisplay:10.37,2013-11-10 00:55:00,
2013-11-09 20:00:00,51.6,29.3,30.00,WNW,292,8.1,8.1,42,0.00,CLR,,0.00,0.0,WeatherDisplay:10.37,2013-11-10 01:00:00,
2013-11-09 20:05:00,51.6,29.3,30.00,SSW,202,8.7,8.7,42,0.00,CLR,,0.00,0.0,WeatherDisplay:10.37,2013-11-10 01:05:00,
2013-11-09 20:10:00,51.6,29.3,30.00,WSW,239,7.0,11.0,42,0.00,CLR,,0.00,0.0,WeatherDisplay:10.37,2013-11-10 01:10:00,
2013-11-09 20:16:00,51.6,29.3,30.00,WSW,248,8.1,8.1,42,0.00,CLR,,0.00,0.0,WeatherDisplay:10.37,2013-11-10 01:16:00,
2013-11-09 20:21:00,51.8,29.4,30.00,WNW,292,10.4,10.4,42,0.00,CLR,,0.00,0.0,WeatherDisplay:10.37,2013-11-10 01:21:00,
2013-11-09 20:26:00,51.6,29.3,30.00,SSW,202,11.5,11.5,42,0.00,CLR,,0.00,0.0,WeatherDisplay:10.37,2013-11-10 01:26:00,
2013-11-09 20:31:00,51.8,29.4,30.03,WSW,248,9.2,9.2,42,0.00,CLR,,0.00,0.0,WeatherDisplay:10.37,2013-11-10 01:31:00,
2013-11-09 20:36:00,52.0,29.6,30.03,SSE,158,12.7,12.7,42,0.00,CLR,,0.00,0.0,WeatherDisplay:10.37,2013-11-10 01:36:00,
2013-11-09 20:41:00,52.0,29.6,30.03,WSW,248,8.5,8.5,42,0.00,CLR,,0.00,0.0,WeatherDisplay:10.37,2013-11-10 01:41:00,
2013-11-09 20:46:00,52.0,29.6,30.00,WSW,248,10.4,10.4,42,0.00,CLR,,0.00,0.0,WeatherDisplay:10.37,2013-11-10 01:46:00,
2013-11-09 20:51:00,51.8,29.4,30.00,WSW,248,12.1,12.1,42,0.00,CLR,,0.00,0.0,WeatherDisplay:10.37,2013-11-10 01:51:00,
2013-11-09 20:56:00,52.0,29.6,30.00,SSW,202,8.1,8.1,42,0.00,CLR,,0.00,0.0,WeatherDisplay:10.37,2013-11-10 01:56:00,
2013-11-09 21:01:00,52.0,29.6,30.00,WNW,292,8.1,8.1,42,0.00,CLR,,0.00,0.0,WeatherDisplay:10.37,2013-11-10 02:01:00,
2013-11-09 21:06:00,51.8,29.4,30.00,SW,225,10.4,10.4,42,0.00,CLR,,0.00,0.0,WeatherDisplay:10.37,2013-11-10 02:06:00,
2013-11-09 21:11:00,52.0,29.6,30.00,SSW,202,10.4,10.4,42,0.00,CLR,,0.00,0.0,WeatherDisplay:10.37,2013-11-10 02:11:00,
2013-11-09 21:16:00,51.8,29.4,30.00,SSW,202,9.2,9.2,42,0.00,CLR,,0.00,0.0,WeatherDisplay:10.37,2013-11-10 02:16:00,
2013-11-09 21:21:00,51.8,29.4,30.00,SSW,202,9.2,9.2,42,0.00,CLR,,0.00,0.0,WeatherDisplay:10.37,2013-11-10 02:21:00,
2013-11-09 21:26:00,51.6,29.8,30.00,WSW,248,10.4,10.4,43,0.00,CLR,,0.00,0.0,WeatherDisplay:10.37,2013-11-10 02:26:00,
2013-11-09 21:31:00,51.6,29.8,30.00,WSW,248,8.1,8.1,43,0.00,CLR,,0.00,0.0,WeatherDisplay:10.37,2013-11-10 02:31:00,
2013-11-09 21:36:00,51.4,29.7,30.00,ESE,112,6.9,6.9,43,0.00,CLR,,0.00,0.0,WeatherDisplay:10.37,2013-11-10 02:36:00,
2013-11-09 21:41:00,51.4,29.7,30.00,SSE,158,10.4,10.4,43,0.00,CLR,,0.00,0.0,WeatherDisplay:10.37,2013-11-10 02:41:00,
2013-11-09 21:46:00,51.3,29.5,30.00,West,270,10.4,10.4,43,0.00,CLR,,0.00,0.0,WeatherDisplay:10.37,2013-11-10 02:46:00,
2013-11-09 21:51:00,51.3,29.5,30.00,WSW,248,8.7,8.7,43,0.00,CLR,,0.00,0.0,WeatherDisplay:10.37,2013-11-10 02:51:00,
2013-11-09 21:56:00,51.1,29.9,30.00,WSW,248,9.2,9.2,44,0.00,CLR,,0.00,0.0,WeatherDisplay:10.37,2013-11-10 02:56:00,
2013-11-09 22:01:00,51.1,29.9,30.00,WNW,292,10.5,10.5,44,0.00,CLR,,0.00,0.0,WeatherDisplay:10.37,2013-11-10 03:01:00,
2013-11-09 22:06:00,50.9,29.7,30.00,WSW,248,6.9,6.9,44,0.00,CLR,,0.00,0.0,WeatherDisplay:10.37,2013-11-10 03:06:00,
2013-11-09 22:11:00,50.9,29.7,30.00,WSW,248,9.2,9.2,44,0.00,CLR,,0.00,0.0,WeatherDisplay:10.37,2013-11-10 03:11:00,
2013-11-09 22:16:00,50.7,30.1,30.00,WNW,292,12.7,12.7,45,0.00,CLR,,0.00,0.0,WeatherDisplay:10.37,2013-11-10 03:16:00,
2013-11-09 22:21:00,50.7,30.7,30.00,WNW,292,8.1,8.1,46,0.00,CLR,,0.00,0.0,WeatherDisplay:10.37,2013-11-10 03:21:00,
2013-11-09 22:26:00,50.5,30.5,30.00,WSW,248,11.5,11.5,46,0.00,CLR,,0.00,0.0,WeatherDisplay:10.37,2013-11-10 03:26:00,
2013-11-09 22:31:00,50.4,30.3,30.00,SW,225,9.2,9.2,46,0.00,CLR,,0.00,0.0,WeatherDisplay:10.37,2013-11-10 03:31:00,
2013-11-09 22:36:00,50.2,30.7,30.00,NNW,338,10.4,10.4,47,0.00,CLR,,0.00,0.0,WeatherDisplay:10.37,2013-11-10 03:36:00,
2013-11-09 22:41:00,50.2,30.7,30.00,WSW,248,9.2,9.2,47,0.00,CLR,,0.00,0.0,WeatherDisplay:10.37,2013-11-10 03:41:00,
2013-11-09 22:46:00,50.2,30.7,30.00,WSW,248,9.2,9.2,47,0.00,CLR,,0.00,0.0,WeatherDisplay:10.37,2013-11-10 03:46:00,
2013-11-09 22:51:00,49.8,30.9,30.00,WNW,292,10.4,10.4,48,0.00,CLR,,0.00,0.0,WeatherDisplay:10.37,2013-11-10 03:51:00,
2013-11-09 22:56:00,49.8,31.4,30.00,WSW,248,12.7,12.7,49,0.00,CLR,,0.00,0.0,WeatherDisplay:10.37,2013-11-10 03:56:00,
2013-11-09 23:01:00,49.6,31.2,30.00,NNE,22,8.1,8.1,49,0.00,CLR,,0.00,0.0,WeatherDisplay:10.37,2013-11-10 04:01:00,
2013-11-09 23:06:00,49.5,31.6,30.00,WSW,248,10.4,10.4,50,0.00,CLR,,0.00,0.0,WeatherDisplay:10.37,2013-11-10 04:06:00,
2013-11-09 23:11:00,49.1,31.2,30.00,NW,315,9.2,9.2,50,0.00,CLR,,0.00,0.0,WeatherDisplay:10.37,2013-11-10 04:11:00,
2013-11-09 23:16:00,48.9,31.6,30.03,WNW,292,11.5,11.5,51,0.00,CLR,,0.00,0.0,WeatherDisplay:10.37,2013-11-10 04:16:00,
2013-11-09 23:21:00,48.9,31.6,30.03,NNW,338,8.1,8.1,51,0.00,CLR,,0.00,0.0,WeatherDisplay:10.37,2013-11-10 04:21:00,
2013-11-09 23:26:00,48.7,31.9,30.03,WNW,292,8.5,8.5,52,0.00,CLR,,0.00,0.0,WeatherDisplay:10.37,2013-11-10 04:26:00,
2013-11-09 23:31:00,48.6,31.7,30.00,WNW,292,8.1,8.1,52,0.00,CLR,,0.00,0.0,WeatherDisplay:10.37,2013-11-10 04:31:00,
2013-11-09 23:36:00,48.4,32.0,30.00,WSW,248,8.1,8.1,53,0.00,CLR,,0.00,0.0,WeatherDisplay:10.37,2013-11-10 04:36:00,
2013-11-09 23:41:00,48.2,31.9,30.00,WSW,248,10.4,10.4,53,0.00,CLR,,0.00,0.0,WeatherDisplay:10.37,2013-11-10 04:41:00,
2013-11-09 23:46:00,48.0,32.2,30.03,South,180,6.2,6.2,54,0.00,CLR,,0.00,0.0,WeatherDisplay:10.37,2013-11-10 04:46:00,
2013-11-09 23:51:00,47.8,32.4,30.03,WSW,248,9.2,9.2,55,0.00,CLR,,0.00,0.0,WeatherDisplay:10.37,2013-11-10 04:51:00,
2013-11-09 23:56:00,47.7,32.3,30.03,WNW,292,8.1,8.1,55,0.00,CLR,,0.00,0.0,WeatherDisplay:10.37,2013-11-10 04:56:00,